sensor_id;sensor_type;location;lat;lon;timestamp;P1;durP1;ratioP1;P2;durP2;ratioP2
6551;SDS011;3309;48.708;9.290;2023-03-12T00:02:06;0.80;;;0.80;;
6551;SDS011;3309;48.708;9.290;2023-03-12T00:04:32;0.90;;;0.90;;
6551;SDS011;3309;48.708;9.290;2023-03-12T00:07:00;0.90;;;0.90;;
6551;SDS011;3309;48.708;9.290;2023-03-12T00:09:26;0.93;;;0.93;;
6551;SDS011;3309;48.708;9.290;2023-03-12T00:11:52;0.90;;;0.90;;
6551;SDS011;3309;48.708;9.290;2023-03-12T00:14:18;0.90;;;0.90;;
6551;SDS011;3309;48.708;9.290;2023-03-12T00:16:44;1.00;;;1.00;;
6551;SDS011;3309;48.708;9.290;2023-03-12T00:19:10;0.90;;;0.90;;
6551;SDS011;3309;48.708;9.290;2023-03-12T00:21:37;1.00;;;1.00;;
6551;SDS011;3309;48.708;9.290;2023-03-12T00:24:03;0.90;;;0.90;;
6551;SDS011;3309;48.708;9.290;2023-03-12T00:26:29;1.00;;;1.00;;
6551;SDS011;3309;48.708;9.290;2023-03-12T00:28:55;0.90;;;0.90;;
6551;SDS011;3309;48.708;9.290;2023-03-12T00:31:26;1.00;;;1.00;;
6551;SDS011;3309;48.708;9.290;2023-03-12T00:33:53;0.80;;;0.80;;
6551;SDS011;3309;48.708;9.290;2023-03-12T00:36:19;0.90;;;0.90;;
6551;SDS011;3309;48.708;9.290;2023-03-12T00:38:48;0.80;;;0.80;;
6551;SDS011;3309;48.708;9.290;2023-03-12T00:41:14;0.90;;;0.90;;
6551;SDS011;3309;48.708;9.290;2023-03-12T00:43:40;0.90;;;0.90;;
6551;SDS011;3309;48.708;9.290;2023-03-12T00:46:06;0.97;;;0.97;;
6551;SDS011;3309;48.708;9.290;2023-03-12T00:48:32;1.00;;;1.00;;
6551;SDS011;3309;48.708;9.290;2023-03-12T00:50:57;1.00;;;1.00;;
6551;SDS011;3309;48.708;9.290;2023-03-12T00:53:23;1.10;;;1.10;;
6551;SDS011;3309;48.708;9.290;2023-03-12T00:55:49;0.90;;;0.90;;
6551;SDS011;3309;48.708;9.290;2023-03-12T00:58:15;0.90;;;0.90;;
6551;SDS011;3309;48.708;9.290;2023-03-12T01:00:41;0.90;;;0.90;;
6551;SDS011;3309;48.708;9.290;2023-03-12T01:03:07;1.00;;;1.00;;
6551;SDS011;3309;48.708;9.290;2023-03-12T01:05:33;1.00;;;1.00;;
6551;SDS011;3309;48.708;9.290;2023-03-12T01:08:02;0.90;;;0.90;;
6551;SDS011;3309;48.708;9.290;2023-03-12T01:10:28;1.00;;;1.00;;
6551;SDS011;3309;48.708;9.290;2023-03-12T01:12:54;0.90;;;0.90;;
6551;SDS011;3309;48.708;9.290;2023-03-12T01:15:20;0.80;;;0.80;;
6551;SDS011;3309;48.708;9.290;2023-03-12T01:17:46;1.00;;;1.00;;
6551;SDS011;3309;48.708;9.290;2023-03-12T01:20:12;1.00;;;1.00;;
6551;SDS011;3309;48.708;9.290;2023-03-12T01:22:38;0.90;;;0.90;;
6551;SDS011;3309;48.708;9.290;2023-03-12T01:25:05;0.80;;;0.80;;
6551;SDS011;3309;48.708;9.290;2023-03-12T01:27:31;0.90;;;0.90;;
6551;SDS011;3309;48.708;9.290;2023-03-12T01:29:57;0.83;;;0.83;;
6551;SDS011;3309;48.708;9.290;2023-03-12T01:32:23;0.90;;;0.90;;
6551;SDS011;3309;48.708;9.290;2023-03-12T01:34:49;0.90;;;0.90;;
6551;SDS011;3309;48.708;9.290;2023-03-12T01:37:15;0.90;;;0.90;;
6551;SDS011;3309;48.708;9.290;2023-03-12T01:39:41;1.00;;;1.00;;
6551;SDS011;3309;48.708;9.290;2023-03-12T01:42:07;0.90;;;0.90;;
6551;SDS011;3309;48.708;9.290;2023-03-12T01:47:17;0.90;;;0.90;;
6551;SDS011;3309;48.708;9.290;2023-03-12T01:49:43;0.97;;;0.97;;
6551;SDS011;3309;48.708;9.290;2023-03-12T01:52:11;1.00;;;1.00;;
6551;SDS011;3309;48.708;9.290;2023-03-12T01:54:48;0.90;;;0.90;;
6551;SDS011;3309;48.708;9.290;2023-03-12T01:57:17;0.83;;;0.83;;
6551;SDS011;3309;48.708;9.290;2023-03-12T01:59:45;0.90;;;0.90;;
6551;SDS011;3309;48.708;9.290;2023-03-12T02:02:12;0.90;;;0.90;;
6551;SDS011;3309;48.708;9.290;2023-03-12T02:04:38;0.90;;;0.90;;
6551;SDS011;3309;48.708;9.290;2023-03-12T02:07:08;0.90;;;0.90;;
6551;SDS011;3309;48.708;9.290;2023-03-12T02:09:35;1.00;;;1.00;;
6551;SDS011;3309;48.708;9.290;2023-03-12T02:12:03;0.90;;;0.90;;
6551;SDS011;3309;48.708;9.290;2023-03-12T02:14:29;0.90;;;0.90;;
6551;SDS011;3309;48.708;9.290;2023-03-12T02:16:55;0.90;;;0.90;;
6551;SDS011;3309;48.708;9.290;2023-03-12T02:21:53;1.00;;;1.00;;
6551;SDS011;3309;48.708;9.290;2023-03-12T02:26:54;0.90;;;0.90;;
6551;SDS011;3309;48.708;9.290;2023-03-12T02:29:20;0.90;;;0.90;;
6551;SDS011;3309;48.708;9.290;2023-03-12T02:31:50;0.90;;;0.90;;
6551;SDS011;3309;48.708;9.290;2023-03-12T02:34:17;1.00;;;1.00;;
6551;SDS011;3309;48.708;9.290;2023-03-12T02:36:43;0.90;;;0.90;;
6551;SDS011;3309;48.708;9.290;2023-03-12T02:39:09;0.93;;;0.93;;
6551;SDS011;3309;48.708;9.290;2023-03-12T02:41:37;0.70;;;0.70;;
6551;SDS011;3309;48.708;9.290;2023-03-12T02:46:31;0.80;;;0.80;;
6551;SDS011;3309;48.708;9.290;2023-03-12T02:48:58;0.90;;;0.90;;
6551;SDS011;3309;48.708;9.290;2023-03-12T02:51:25;0.90;;;0.90;;
6551;SDS011;3309;48.708;9.290;2023-03-12T02:53:52;0.93;;;0.93;;
6551;SDS011;3309;48.708;9.290;2023-03-12T02:56:22;1.00;;;1.00;;
6551;SDS011;3309;48.708;9.290;2023-03-12T02:58:48;0.80;;;0.80;;
6551;SDS011;3309;48.708;9.290;2023-03-12T03:01:15;0.90;;;0.90;;
6551;SDS011;3309;48.708;9.290;2023-03-12T03:03:41;0.90;;;0.90;;
6551;SDS011;3309;48.708;9.290;2023-03-12T03:06:07;1.00;;;1.00;;
6551;SDS011;3309;48.708;9.290;2023-03-12T03:08:33;0.90;;;0.90;;
6551;SDS011;3309;48.708;9.290;2023-03-12T03:10:59;1.00;;;1.00;;
6551;SDS011;3309;48.708;9.290;2023-03-12T03:13:27;0.90;;;0.90;;
6551;SDS011;3309;48.708;9.290;2023-03-12T03:15:53;0.90;;;0.90;;
6551;SDS011;3309;48.708;9.290;2023-03-12T03:18:21;1.10;;;1.10;;
6551;SDS011;3309;48.708;9.290;2023-03-12T03:20:53;1.00;;;1.00;;
6551;SDS011;3309;48.708;9.290;2023-03-12T03:23:19;0.90;;;0.90;;
6551;SDS011;3309;48.708;9.290;2023-03-12T03:25:45;1.00;;;1.00;;
6551;SDS011;3309;48.708;9.290;2023-03-12T03:28:11;0.97;;;0.97;;
6551;SDS011;3309;48.708;9.290;2023-03-12T03:30:38;1.00;;;1.00;;
6551;SDS011;3309;48.708;9.290;2023-03-12T03:33:04;1.00;;;1.00;;
6551;SDS011;3309;48.708;9.290;2023-03-12T03:35:32;0.80;;;0.80;;
6551;SDS011;3309;48.708;9.290;2023-03-12T03:37:58;1.00;;;1.00;;
6551;SDS011;3309;48.708;9.290;2023-03-12T03:40:24;0.97;;;0.97;;
6551;SDS011;3309;48.708;9.290;2023-03-12T03:42:50;0.90;;;0.90;;
6551;SDS011;3309;48.708;9.290;2023-03-12T03:45:16;0.90;;;0.90;;
6551;SDS011;3309;48.708;9.290;2023-03-12T03:47:43;1.00;;;1.00;;
6551;SDS011;3309;48.708;9.290;2023-03-12T03:50:09;0.90;;;0.90;;
6551;SDS011;3309;48.708;9.290;2023-03-12T03:52:35;0.83;;;0.83;;
6551;SDS011;3309;48.708;9.290;2023-03-12T03:55:01;0.87;;;0.87;;
6551;SDS011;3309;48.708;9.290;2023-03-12T03:57:27;0.93;;;0.93;;
6551;SDS011;3309;48.708;9.290;2023-03-12T03:59:54;1.00;;;1.00;;
6551;SDS011;3309;48.708;9.290;2023-03-12T04:02:20;0.90;;;0.90;;
6551;SDS011;3309;48.708;9.290;2023-03-12T04:04:46;0.80;;;0.80;;
6551;SDS011;3309;48.708;9.290;2023-03-12T04:07:12;0.90;;;0.90;;
6551;SDS011;3309;48.708;9.290;2023-03-12T04:09:38;0.80;;;0.80;;
6551;SDS011;3309;48.708;9.290;2023-03-12T04:12:04;0.93;;;0.93;;
6551;SDS011;3309;48.708;9.290;2023-03-12T04:14:30;0.90;;;0.90;;
6551;SDS011;3309;48.708;9.290;2023-03-12T04:16:56;0.90;;;0.90;;
6551;SDS011;3309;48.708;9.290;2023-03-12T04:19:22;1.00;;;1.00;;
6551;SDS011;3309;48.708;9.290;2023-03-12T04:21:48;0.90;;;0.90;;
6551;SDS011;3309;48.708;9.290;2023-03-12T04:24:14;0.80;;;0.80;;
6551;SDS011;3309;48.708;9.290;2023-03-12T04:26:41;0.90;;;0.90;;
6551;SDS011;3309;48.708;9.290;2023-03-12T04:29:06;0.90;;;0.90;;
6551;SDS011;3309;48.708;9.290;2023-03-12T04:31:32;0.97;;;0.97;;
6551;SDS011;3309;48.708;9.290;2023-03-12T04:33:59;1.00;;;1.00;;
6551;SDS011;3309;48.708;9.290;2023-03-12T04:36:25;0.77;;;0.77;;
6551;SDS011;3309;48.708;9.290;2023-03-12T04:38:51;0.90;;;0.90;;
6551;SDS011;3309;48.708;9.290;2023-03-12T04:41:17;0.90;;;0.90;;
6551;SDS011;3309;48.708;9.290;2023-03-12T04:43:43;0.90;;;0.90;;
6551;SDS011;3309;48.708;9.290;2023-03-12T04:46:09;0.97;;;0.97;;
6551;SDS011;3309;48.708;9.290;2023-03-12T04:48:35;0.80;;;0.80;;
6551;SDS011;3309;48.708;9.290;2023-03-12T04:51:02;0.90;;;0.90;;
6551;SDS011;3309;48.708;9.290;2023-03-12T04:53:28;0.90;;;0.90;;
6551;SDS011;3309;48.708;9.290;2023-03-12T04:55:54;0.90;;;0.90;;
6551;SDS011;3309;48.708;9.290;2023-03-12T04:58:20;1.00;;;1.00;;
6551;SDS011;3309;48.708;9.290;2023-03-12T05:00:46;0.90;;;0.90;;
6551;SDS011;3309;48.708;9.290;2023-03-12T05:03:13;0.80;;;0.80;;
6551;SDS011;3309;48.708;9.290;2023-03-12T05:05:38;1.00;;;1.00;;
6551;SDS011;3309;48.708;9.290;2023-03-12T05:08:04;0.90;;;0.90;;
6551;SDS011;3309;48.708;9.290;2023-03-12T05:10:31;0.80;;;0.80;;
6551;SDS011;3309;48.708;9.290;2023-03-12T05:12:57;0.80;;;0.80;;
6551;SDS011;3309;48.708;9.290;2023-03-12T05:15:23;0.90;;;0.90;;
6551;SDS011;3309;48.708;9.290;2023-03-12T05:17:49;0.90;;;0.90;;
6551;SDS011;3309;48.708;9.290;2023-03-12T05:20:15;0.80;;;0.80;;
6551;SDS011;3309;48.708;9.290;2023-03-12T05:22:41;0.80;;;0.80;;
6551;SDS011;3309;48.708;9.290;2023-03-12T05:25:08;0.90;;;0.90;;
6551;SDS011;3309;48.708;9.290;2023-03-12T05:27:34;0.80;;;0.80;;
6551;SDS011;3309;48.708;9.290;2023-03-12T05:30:00;1.00;;;1.00;;
6551;SDS011;3309;48.708;9.290;2023-03-12T05:32:26;0.90;;;0.90;;
6551;SDS011;3309;48.708;9.290;2023-03-12T05:34:52;0.90;;;0.90;;
6551;SDS011;3309;48.708;9.290;2023-03-12T05:37:18;0.97;;;0.97;;
6551;SDS011;3309;48.708;9.290;2023-03-12T05:39:44;0.90;;;0.90;;
6551;SDS011;3309;48.708;9.290;2023-03-12T05:42:13;0.90;;;0.90;;
6551;SDS011;3309;48.708;9.290;2023-03-12T05:44:39;0.90;;;0.90;;
6551;SDS011;3309;48.708;9.290;2023-03-12T05:47:06;0.90;;;0.90;;
6551;SDS011;3309;48.708;9.290;2023-03-12T05:49:32;1.00;;;1.00;;
6551;SDS011;3309;48.708;9.290;2023-03-12T05:51:58;0.90;;;0.90;;
6551;SDS011;3309;48.708;9.290;2023-03-12T05:54:24;0.80;;;0.80;;
6551;SDS011;3309;48.708;9.290;2023-03-12T05:56:50;0.90;;;0.90;;
6551;SDS011;3309;48.708;9.290;2023-03-12T05:59:16;1.00;;;1.00;;
6551;SDS011;3309;48.708;9.290;2023-03-12T06:01:42;0.80;;;0.80;;
6551;SDS011;3309;48.708;9.290;2023-03-12T06:04:08;0.90;;;0.90;;
6551;SDS011;3309;48.708;9.290;2023-03-12T06:06:35;0.90;;;0.90;;
6551;SDS011;3309;48.708;9.290;2023-03-12T06:09:02;0.80;;;0.80;;
6551;SDS011;3309;48.708;9.290;2023-03-12T06:11:28;0.80;;;0.80;;
6551;SDS011;3309;48.708;9.290;2023-03-12T06:13:55;0.83;;;0.83;;
6551;SDS011;3309;48.708;9.290;2023-03-12T06:16:22;0.90;;;0.90;;
6551;SDS011;3309;48.708;9.290;2023-03-12T06:18:51;0.90;;;0.90;;
6551;SDS011;3309;48.708;9.290;2023-03-12T06:21:19;0.90;;;0.90;;
6551;SDS011;3309;48.708;9.290;2023-03-12T06:23:46;0.90;;;0.90;;
6551;SDS011;3309;48.708;9.290;2023-03-12T06:26:12;0.90;;;0.90;;
6551;SDS011;3309;48.708;9.290;2023-03-12T06:28:39;0.90;;;0.90;;
6551;SDS011;3309;48.708;9.290;2023-03-12T06:31:05;0.90;;;0.90;;
6551;SDS011;3309;48.708;9.290;2023-03-12T06:33:31;0.90;;;0.90;;
6551;SDS011;3309;48.708;9.290;2023-03-12T06:35:58;0.90;;;0.90;;
6551;SDS011;3309;48.708;9.290;2023-03-12T06:38:24;0.97;;;0.97;;
6551;SDS011;3309;48.708;9.290;2023-03-12T06:40:57;0.97;;;0.97;;
6551;SDS011;3309;48.708;9.290;2023-03-12T06:43:23;0.90;;;0.90;;
6551;SDS011;3309;48.708;9.290;2023-03-12T06:45:50;0.90;;;0.90;;
6551;SDS011;3309;48.708;9.290;2023-03-12T06:48:16;0.87;;;0.87;;
6551;SDS011;3309;48.708;9.290;2023-03-12T06:50:42;0.93;;;0.93;;
6551;SDS011;3309;48.708;9.290;2023-03-12T06:53:08;1.00;;;1.00;;
6551;SDS011;3309;48.708;9.290;2023-03-12T06:55:34;0.90;;;0.90;;
6551;SDS011;3309;48.708;9.290;2023-03-12T06:57:59;0.90;;;0.90;;
6551;SDS011;3309;48.708;9.290;2023-03-12T07:00:27;0.90;;;0.90;;
6551;SDS011;3309;48.708;9.290;2023-03-12T07:02:54;0.80;;;0.80;;
6551;SDS011;3309;48.708;9.290;2023-03-12T07:05:20;1.00;;;1.00;;
6551;SDS011;3309;48.708;9.290;2023-03-12T07:07:46;0.90;;;0.90;;
6551;SDS011;3309;48.708;9.290;2023-03-12T07:10:12;0.90;;;0.90;;
6551;SDS011;3309;48.708;9.290;2023-03-12T07:12:38;0.90;;;0.90;;
6551;SDS011;3309;48.708;9.290;2023-03-12T07:15:04;0.87;;;0.87;;
6551;SDS011;3309;48.708;9.290;2023-03-12T07:17:30;0.90;;;0.90;;
6551;SDS011;3309;48.708;9.290;2023-03-12T07:19:56;1.00;;;1.00;;
6551;SDS011;3309;48.708;9.290;2023-03-12T07:22:22;0.83;;;0.83;;
6551;SDS011;3309;48.708;9.290;2023-03-12T07:24:48;0.93;;;0.93;;
6551;SDS011;3309;48.708;9.290;2023-03-12T07:27:15;1.00;;;1.00;;
6551;SDS011;3309;48.708;9.290;2023-03-12T07:29:41;0.90;;;0.90;;
6551;SDS011;3309;48.708;9.290;2023-03-12T07:32:07;0.90;;;0.90;;
6551;SDS011;3309;48.708;9.290;2023-03-12T07:34:33;0.80;;;0.80;;
6551;SDS011;3309;48.708;9.290;2023-03-12T07:36:59;0.90;;;0.90;;
6551;SDS011;3309;48.708;9.290;2023-03-12T07:39:25;0.80;;;0.80;;
6551;SDS011;3309;48.708;9.290;2023-03-12T07:41:51;0.90;;;0.90;;
6551;SDS011;3309;48.708;9.290;2023-03-12T07:44:17;0.90;;;0.90;;
6551;SDS011;3309;48.708;9.290;2023-03-12T07:46:43;0.93;;;0.93;;
6551;SDS011;3309;48.708;9.290;2023-03-12T07:49:09;0.87;;;0.87;;
6551;SDS011;3309;48.708;9.290;2023-03-12T07:51:34;0.90;;;0.90;;
6551;SDS011;3309;48.708;9.290;2023-03-12T07:54:01;0.80;;;0.80;;
6551;SDS011;3309;48.708;9.290;2023-03-12T07:56:27;0.90;;;0.90;;
6551;SDS011;3309;48.708;9.290;2023-03-12T07:58:53;0.90;;;0.90;;
6551;SDS011;3309;48.708;9.290;2023-03-12T08:01:19;0.90;;;0.90;;
6551;SDS011;3309;48.708;9.290;2023-03-12T08:03:45;0.90;;;0.90;;
6551;SDS011;3309;48.708;9.290;2023-03-12T08:06:11;0.90;;;0.90;;
6551;SDS011;3309;48.708;9.290;2023-03-12T08:08:37;0.90;;;0.90;;
6551;SDS011;3309;48.708;9.290;2023-03-12T08:11:05;0.80;;;0.80;;
6551;SDS011;3309;48.708;9.290;2023-03-12T08:13:32;0.90;;;0.90;;
6551;SDS011;3309;48.708;9.290;2023-03-12T08:15:58;1.00;;;1.00;;
6551;SDS011;3309;48.708;9.290;2023-03-12T08:18:24;0.90;;;0.90;;
6551;SDS011;3309;48.708;9.290;2023-03-12T08:20:50;1.00;;;1.00;;
6551;SDS011;3309;48.708;9.290;2023-03-12T08:23:17;0.80;;;0.80;;
6551;SDS011;3309;48.708;9.290;2023-03-12T08:25:44;0.83;;;0.83;;
6551;SDS011;3309;48.708;9.290;2023-03-12T08:28:11;0.80;;;0.80;;
6551;SDS011;3309;48.708;9.290;2023-03-12T08:30:37;0.83;;;0.83;;
6551;SDS011;3309;48.708;9.290;2023-03-12T08:33:03;0.80;;;0.80;;
6551;SDS011;3309;48.708;9.290;2023-03-12T08:35:29;0.90;;;0.90;;
6551;SDS011;3309;48.708;9.290;2023-03-12T08:37:55;0.90;;;0.90;;
6551;SDS011;3309;48.708;9.290;2023-03-12T08:40:22;0.90;;;0.90;;
6551;SDS011;3309;48.708;9.290;2023-03-12T08:42:48;0.80;;;0.80;;
6551;SDS011;3309;48.708;9.290;2023-03-12T08:45:14;0.80;;;0.80;;
6551;SDS011;3309;48.708;9.290;2023-03-12T08:47:40;0.83;;;0.83;;
6551;SDS011;3309;48.708;9.290;2023-03-12T08:50:08;0.80;;;0.80;;
6551;SDS011;3309;48.708;9.290;2023-03-12T08:52:34;0.80;;;0.80;;
6551;SDS011;3309;48.708;9.290;2023-03-12T08:55:00;0.80;;;0.80;;
6551;SDS011;3309;48.708;9.290;2023-03-12T08:57:26;0.90;;;0.90;;
6551;SDS011;3309;48.708;9.290;2023-03-12T08:59:53;0.90;;;0.90;;
6551;SDS011;3309;48.708;9.290;2023-03-12T09:02:19;0.90;;;0.90;;
6551;SDS011;3309;48.708;9.290;2023-03-12T09:04:48;0.90;;;0.90;;
6551;SDS011;3309;48.708;9.290;2023-03-12T09:07:14;0.90;;;0.90;;
6551;SDS011;3309;48.708;9.290;2023-03-12T09:09:42;0.70;;;0.70;;
6551;SDS011;3309;48.708;9.290;2023-03-12T09:12:08;0.90;;;0.90;;
6551;SDS011;3309;48.708;9.290;2023-03-12T09:14:34;0.90;;;0.90;;
6551;SDS011;3309;48.708;9.290;2023-03-12T09:17:01;0.87;;;0.87;;
6551;SDS011;3309;48.708;9.290;2023-03-12T09:19:27;0.90;;;0.90;;
6551;SDS011;3309;48.708;9.290;2023-03-12T09:21:53;0.80;;;0.80;;
6551;SDS011;3309;48.708;9.290;2023-03-12T09:24:19;0.90;;;0.90;;
6551;SDS011;3309;48.708;9.290;2023-03-12T09:26:46;0.90;;;0.90;;
6551;SDS011;3309;48.708;9.290;2023-03-12T09:29:12;0.90;;;0.90;;
6551;SDS011;3309;48.708;9.290;2023-03-12T09:31:38;0.80;;;0.80;;
6551;SDS011;3309;48.708;9.290;2023-03-12T09:34:04;0.80;;;0.80;;
6551;SDS011;3309;48.708;9.290;2023-03-12T09:36:30;0.80;;;0.80;;
6551;SDS011;3309;48.708;9.290;2023-03-12T09:38:56;0.80;;;0.80;;
6551;SDS011;3309;48.708;9.290;2023-03-12T09:41:24;0.80;;;0.80;;
6551;SDS011;3309;48.708;9.290;2023-03-12T09:44:13;0.80;;;0.80;;
6551;SDS011;3309;48.708;9.290;2023-03-12T09:46:40;0.70;;;0.70;;
6551;SDS011;3309;48.708;9.290;2023-03-12T09:49:10;0.80;;;0.80;;
6551;SDS011;3309;48.708;9.290;2023-03-12T09:51:46;0.70;;;0.70;;
6551;SDS011;3309;48.708;9.290;2023-03-12T09:54:21;0.80;;;0.80;;
6551;SDS011;3309;48.708;9.290;2023-03-12T09:56:49;0.70;;;0.70;;
6551;SDS011;3309;48.708;9.290;2023-03-12T09:59:15;0.70;;;0.70;;
6551;SDS011;3309;48.708;9.290;2023-03-12T10:01:43;0.80;;;0.80;;
6551;SDS011;3309;48.708;9.290;2023-03-12T10:07:00;0.60;;;0.60;;
6551;SDS011;3309;48.708;9.290;2023-03-12T10:14:50;0.60;;;0.60;;
6551;SDS011;3309;48.708;9.290;2023-03-12T10:22:56;0.80;;;0.80;;
6551;SDS011;3309;48.708;9.290;2023-03-12T10:28:19;0.70;;;0.70;;
6551;SDS011;3309;48.708;9.290;2023-03-12T10:30:57;0.70;;;0.70;;
6551;SDS011;3309;48.708;9.290;2023-03-12T10:33:24;0.70;;;0.70;;
6551;SDS011;3309;48.708;9.290;2023-03-12T10:35:52;0.60;;;0.60;;
6551;SDS011;3309;48.708;9.290;2023-03-12T10:38:21;0.70;;;0.70;;
6551;SDS011;3309;48.708;9.290;2023-03-12T10:40:49;0.73;;;0.73;;
6551;SDS011;3309;48.708;9.290;2023-03-12T10:43:15;0.60;;;0.60;;
6551;SDS011;3309;48.708;9.290;2023-03-12T10:48:21;0.73;;;0.73;;
6551;SDS011;3309;48.708;9.290;2023-03-12T10:51:06;0.60;;;0.60;;
6551;SDS011;3309;48.708;9.290;2023-03-12T10:53:36;0.50;;;0.50;;
6551;SDS011;3309;48.708;9.290;2023-03-12T10:58:37;0.53;;;0.53;;
6551;SDS011;3309;48.708;9.290;2023-03-12T11:01:03;0.60;;;0.60;;
6551;SDS011;3309;48.708;9.290;2023-03-12T11:03:30;0.70;;;0.70;;
6551;SDS011;3309;48.708;9.290;2023-03-12T11:05:58;0.50;;;0.50;;
6551;SDS011;3309;48.708;9.290;2023-03-12T11:10:51;0.70;;;0.70;;
6551;SDS011;3309;48.708;9.290;2023-03-12T11:13:31;0.70;;;0.70;;
6551;SDS011;3309;48.708;9.290;2023-03-12T11:16:02;0.53;;;0.53;;
6551;SDS011;3309;48.708;9.290;2023-03-12T11:18:29;0.57;;;0.57;;
6551;SDS011;3309;48.708;9.290;2023-03-12T11:23:35;0.60;;;0.60;;
6551;SDS011;3309;48.708;9.290;2023-03-12T11:26:04;0.50;;;0.50;;
6551;SDS011;3309;48.708;9.290;2023-03-12T11:28:39;0.50;;;0.50;;
6551;SDS011;3309;48.708;9.290;2023-03-12T11:31:07;0.67;;;0.67;;
6551;SDS011;3309;48.708;9.290;2023-03-12T11:33:35;0.50;;;0.50;;
6551;SDS011;3309;48.708;9.290;2023-03-12T11:38:37;0.50;;;0.50;;
6551;SDS011;3309;48.708;9.290;2023-03-12T11:41:09;0.50;;;0.50;;
6551;SDS011;3309;48.708;9.290;2023-03-12T12:01:40;0.60;;;0.60;;
6551;SDS011;3309;48.708;9.290;2023-03-12T12:09:37;0.40;;;0.40;;
6551;SDS011;3309;48.708;9.290;2023-03-12T12:20:00;0.50;;;0.50;;
6551;SDS011;3309;48.708;9.290;2023-03-12T12:25:33;0.57;;;0.57;;
6551;SDS011;3309;48.708;9.290;2023-03-12T12:30:50;0.50;;;0.50;;
6551;SDS011;3309;48.708;9.290;2023-03-12T12:33:24;0.53;;;0.53;;
6551;SDS011;3309;48.708;9.290;2023-03-12T12:35:54;0.50;;;0.50;;
6551;SDS011;3309;48.708;9.290;2023-03-12T12:40:59;0.53;;;0.53;;
6551;SDS011;3309;48.708;9.290;2023-03-12T12:43:32;0.60;;;0.60;;
6551;SDS011;3309;48.708;9.290;2023-03-12T12:46:04;0.50;;;0.50;;
6551;SDS011;3309;48.708;9.290;2023-03-12T12:50:57;0.50;;;0.50;;
6551;SDS011;3309;48.708;9.290;2023-03-12T12:56:06;0.50;;;0.50;;
6551;SDS011;3309;48.708;9.290;2023-03-12T13:01:21;0.40;;;0.40;;
6551;SDS011;3309;48.708;9.290;2023-03-12T13:03:47;0.40;;;0.40;;
6551;SDS011;3309;48.708;9.290;2023-03-12T13:06:14;0.50;;;0.50;;
6551;SDS011;3309;48.708;9.290;2023-03-12T13:13:42;0.60;;;0.60;;
6551;SDS011;3309;48.708;9.290;2023-03-12T13:16:41;0.50;;;0.50;;
6551;SDS011;3309;48.708;9.290;2023-03-12T13:21:39;0.60;;;0.60;;
6551;SDS011;3309;48.708;9.290;2023-03-12T13:29:34;0.50;;;0.50;;
6551;SDS011;3309;48.708;9.290;2023-03-12T13:32:01;0.60;;;0.60;;
6551;SDS011;3309;48.708;9.290;2023-03-12T13:34:31;0.53;;;0.53;;
6551;SDS011;3309;48.708;9.290;2023-03-12T13:37:16;0.50;;;0.50;;
6551;SDS011;3309;48.708;9.290;2023-03-12T13:39:43;0.60;;;0.60;;
6551;SDS011;3309;48.708;9.290;2023-03-12T13:44:47;0.80;;;0.80;;
6551;SDS011;3309;48.708;9.290;2023-03-12T13:47:27;0.43;;;0.43;;
6551;SDS011;3309;48.708;9.290;2023-03-12T13:52:21;0.70;;;0.70;;
6551;SDS011;3309;48.708;9.290;2023-03-12T13:55:01;0.60;;;0.60;;
6551;SDS011;3309;48.708;9.290;2023-03-12T13:57:29;0.57;;;0.57;;
6551;SDS011;3309;48.708;9.290;2023-03-12T13:59:56;0.40;;;0.40;;
6551;SDS011;3309;48.708;9.290;2023-03-12T14:02:24;0.50;;;0.50;;
6551;SDS011;3309;48.708;9.290;2023-03-12T14:04:51;0.60;;;0.60;;
6551;SDS011;3309;48.708;9.290;2023-03-12T14:10:02;0.60;;;0.60;;
6551;SDS011;3309;48.708;9.290;2023-03-12T14:15:05;0.50;;;0.50;;
6551;SDS011;3309;48.708;9.290;2023-03-12T14:17:33;0.50;;;0.50;;
6551;SDS011;3309;48.708;9.290;2023-03-12T14:20:02;0.60;;;0.60;;
6551;SDS011;3309;48.708;9.290;2023-03-12T14:22:33;0.63;;;0.63;;
6551;SDS011;3309;48.708;9.290;2023-03-12T14:27:59;0.60;;;0.60;;
6551;SDS011;3309;48.708;9.290;2023-03-12T14:30:38;0.60;;;0.60;;
6551;SDS011;3309;48.708;9.290;2023-03-12T14:33:06;0.50;;;0.50;;
6551;SDS011;3309;48.708;9.290;2023-03-12T14:35:33;0.50;;;0.50;;
6551;SDS011;3309;48.708;9.290;2023-03-12T14:38:03;0.60;;;0.60;;
6551;SDS011;3309;48.708;9.290;2023-03-12T14:40:41;0.60;;;0.60;;
6551;SDS011;3309;48.708;9.290;2023-03-12T14:43:21;0.50;;;0.50;;
6551;SDS011;3309;48.708;9.290;2023-03-12T14:45:55;0.57;;;0.57;;
6551;SDS011;3309;48.708;9.290;2023-03-12T14:48:34;0.60;;;0.60;;
6551;SDS011;3309;48.708;9.290;2023-03-12T14:51:00;0.60;;;0.60;;
6551;SDS011;3309;48.708;9.290;2023-03-12T14:53:27;0.50;;;0.50;;
6551;SDS011;3309;48.708;9.290;2023-03-12T14:55:58;0.63;;;0.63;;
6551;SDS011;3309;48.708;9.290;2023-03-12T14:58:24;0.53;;;0.53;;
6551;SDS011;3309;48.708;9.290;2023-03-12T15:00:53;0.60;;;0.60;;
6551;SDS011;3309;48.708;9.290;2023-03-12T15:03:21;0.60;;;0.60;;
6551;SDS011;3309;48.708;9.290;2023-03-12T15:05:48;0.63;;;0.63;;
6551;SDS011;3309;48.708;9.290;2023-03-12T15:08:15;0.50;;;0.50;;
6551;SDS011;3309;48.708;9.290;2023-03-12T15:11:02;0.47;;;0.47;;
6551;SDS011;3309;48.708;9.290;2023-03-12T15:13:27;0.60;;;0.60;;
6551;SDS011;3309;48.708;9.290;2023-03-12T15:15:54;0.67;;;0.67;;
6551;SDS011;3309;48.708;9.290;2023-03-12T15:18:25;0.60;;;0.60;;
6551;SDS011;3309;48.708;9.290;2023-03-12T15:20:51;0.60;;;0.60;;
6551;SDS011;3309;48.708;9.290;2023-03-12T15:23:18;0.40;;;0.40;;
6551;SDS011;3309;48.708;9.290;2023-03-12T15:25:44;0.60;;;0.60;;
6551;SDS011;3309;48.708;9.290;2023-03-12T15:28:23;0.60;;;0.60;;
6551;SDS011;3309;48.708;9.290;2023-03-12T15:31:11;0.50;;;0.50;;
6551;SDS011;3309;48.708;9.290;2023-03-12T15:33:36;0.50;;;0.50;;
6551;SDS011;3309;48.708;9.290;2023-03-12T15:36:04;0.60;;;0.60;;
6551;SDS011;3309;48.708;9.290;2023-03-12T15:38:30;0.40;;;0.40;;
6551;SDS011;3309;48.708;9.290;2023-03-12T15:41:00;0.50;;;0.50;;
6551;SDS011;3309;48.708;9.290;2023-03-12T15:43:28;0.60;;;0.60;;
6551;SDS011;3309;48.708;9.290;2023-03-12T15:45:55;0.50;;;0.50;;
6551;SDS011;3309;48.708;9.290;2023-03-12T15:50:52;0.50;;;0.50;;
6551;SDS011;3309;48.708;9.290;2023-03-12T15:55:59;0.50;;;0.50;;
6551;SDS011;3309;48.708;9.290;2023-03-12T15:58:33;0.50;;;0.50;;
6551;SDS011;3309;48.708;9.290;2023-03-12T16:01:14;0.60;;;0.60;;
6551;SDS011;3309;48.708;9.290;2023-03-12T16:03:41;0.50;;;0.50;;
6551;SDS011;3309;48.708;9.290;2023-03-12T16:06:19;0.57;;;0.57;;
6551;SDS011;3309;48.708;9.290;2023-03-12T16:11:15;0.50;;;0.50;;
6551;SDS011;3309;48.708;9.290;2023-03-12T16:13:42;0.60;;;0.60;;
6551;SDS011;3309;48.708;9.290;2023-03-12T16:16:10;0.53;;;0.53;;
6551;SDS011;3309;48.708;9.290;2023-03-12T16:18:37;0.50;;;0.50;;
6551;SDS011;3309;48.708;9.290;2023-03-12T16:21:03;0.47;;;0.47;;
6551;SDS011;3309;48.708;9.290;2023-03-12T16:23:29;0.60;;;0.60;;
6551;SDS011;3309;48.708;9.290;2023-03-12T16:25:55;0.50;;;0.50;;
6551;SDS011;3309;48.708;9.290;2023-03-12T16:28:23;0.50;;;0.50;;
6551;SDS011;3309;48.708;9.290;2023-03-12T16:30:49;0.60;;;0.60;;
6551;SDS011;3309;48.708;9.290;2023-03-12T16:33:17;0.60;;;0.60;;
6551;SDS011;3309;48.708;9.290;2023-03-12T16:35:43;0.60;;;0.60;;
6551;SDS011;3309;48.708;9.290;2023-03-12T16:38:09;0.60;;;0.60;;
6551;SDS011;3309;48.708;9.290;2023-03-12T16:40:39;0.60;;;0.60;;
6551;SDS011;3309;48.708;9.290;2023-03-12T16:43:06;0.60;;;0.60;;
6551;SDS011;3309;48.708;9.290;2023-03-12T16:45:35;0.73;;;0.73;;
6551;SDS011;3309;48.708;9.290;2023-03-12T16:48:03;0.50;;;0.50;;
6551;SDS011;3309;48.708;9.290;2023-03-12T16:50:30;0.60;;;0.60;;
6551;SDS011;3309;48.708;9.290;2023-03-12T16:52:57;0.60;;;0.60;;
6551;SDS011;3309;48.708;9.290;2023-03-12T16:55:25;0.50;;;0.50;;
6551;SDS011;3309;48.708;9.290;2023-03-12T16:57:56;0.47;;;0.47;;
6551;SDS011;3309;48.708;9.290;2023-03-12T17:00:23;0.60;;;0.60;;
6551;SDS011;3309;48.708;9.290;2023-03-12T17:02:50;0.60;;;0.60;;
6551;SDS011;3309;48.708;9.290;2023-03-12T17:05:19;0.60;;;0.60;;
6551;SDS011;3309;48.708;9.290;2023-03-12T17:07:45;0.50;;;0.50;;
6551;SDS011;3309;48.708;9.290;2023-03-12T17:10:11;0.60;;;0.60;;
6551;SDS011;3309;48.708;9.290;2023-03-12T17:12:39;0.60;;;0.60;;
6551;SDS011;3309;48.708;9.290;2023-03-12T17:15:21;0.60;;;0.60;;
6551;SDS011;3309;48.708;9.290;2023-03-12T17:17:48;0.60;;;0.60;;
6551;SDS011;3309;48.708;9.290;2023-03-12T17:20:15;0.60;;;0.60;;